createdAt,value
2023-01-30T00:00:56.651Z,10.88
2023-01-30T00:03:24.268Z,9.98
2023-01-30T00:05:51.568Z,11.55
2023-01-30T00:08:19.015Z,10.75
2023-01-30T00:10:46.535Z,11.38
2023-01-30T00:13:17.067Z,11.52
2023-01-30T00:15:44.449Z,10.07
2023-01-30T00:18:11.639Z,11.63
2023-01-30T00:20:38.832Z,10.98
2023-01-30T00:23:06.346Z,10.75
2023-01-30T00:25:33.535Z,11.38
2023-01-30T00:28:01.605Z,10.88
2023-01-30T00:30:29.408Z,11.27
2023-01-30T00:32:57.301Z,10.43
2023-01-30T00:35:28.423Z,10.13
2023-01-30T00:37:57.041Z,10.25
2023-01-30T00:40:25.122Z,9.52
2023-01-30T00:45:59.614Z,10.57
2023-01-30T00:48:27.031Z,10.10
2023-01-30T00:50:54.160Z,9.95
2023-01-30T00:53:21.274Z,9.75
2023-01-30T00:55:48.477Z,10.43
2023-01-30T00:58:15.624Z,9.98
2023-01-30T01:00:42.663Z,9.68
2023-01-30T01:03:09.798Z,9.60
2023-01-30T01:05:37.009Z,8.88
2023-01-30T01:08:04.301Z,9.63
2023-01-30T01:10:31.840Z,11.88
2023-01-30T01:12:58.988Z,8.75
2023-01-30T01:15:26.788Z,9.27
2023-01-30T01:17:53.997Z,8.43
2023-01-30T01:20:22.040Z,8.80
2023-01-30T01:22:51.940Z,9.23
2023-01-30T01:25:19.619Z,7.88
2023-01-30T01:27:47.546Z,7.38
2023-01-30T01:30:14.877Z,8.38
2023-01-30T01:32:42.072Z,7.05
2023-01-30T01:35:09.382Z,7.28
2023-01-30T01:37:36.426Z,8.52
2023-01-30T01:40:22.891Z,8.23
2023-01-30T01:42:51.025Z,8.18
2023-01-30T01:45:22.911Z,8.07
2023-01-30T01:47:58.920Z,7.18
2023-01-30T01:50:29.175Z,6.75
2023-01-30T01:52:57.647Z,6.57
2023-01-30T01:55:25.387Z,7.32
2023-01-30T01:57:57.192Z,6.80
2023-01-30T02:00:24.423Z,6.43
2023-01-30T02:02:59.315Z,5.82
2023-01-30T02:05:28.939Z,6.05
2023-01-30T02:08:01.365Z,6.38
2023-01-30T02:10:33.349Z,5.03
2023-01-30T02:15:27.428Z,4.03
2023-01-30T02:17:54.673Z,4.10
2023-01-30T02:20:21.883Z,4.38
2023-01-30T02:22:51.730Z,3.90
2023-01-30T02:25:37.018Z,3.60
2023-01-30T02:28:21.621Z,3.40
2023-01-30T02:30:51.953Z,3.72
2023-01-30T02:33:48.642Z,3.40
2023-01-30T02:36:26.582Z,2.92
2023-01-30T02:38:53.715Z,3.42
2023-01-30T02:41:37.769Z,3.33
2023-01-30T02:44:27.961Z,3.50
2023-01-30T02:46:57.671Z,3.65
2023-01-30T02:49:29.844Z,3.63
2023-01-30T02:51:58.200Z,3.65
2023-01-30T02:54:25.315Z,3.75
2023-01-30T02:56:53.811Z,3.88
2023-01-30T02:59:35.905Z,3.20
2023-01-30T03:02:18.281Z,3.67
2023-01-30T03:04:51.158Z,3.50
2023-01-30T03:07:25.806Z,2.38
2023-01-30T03:10:05.462Z,3.10
2023-01-30T03:12:40.887Z,3.28
2023-01-30T03:15:27.079Z,3.45
2023-01-30T03:17:55.664Z,3.00
2023-01-30T03:20:22.919Z,2.58
2023-01-30T03:22:50.142Z,2.80
2023-01-30T03:25:21.024Z,3.03
2023-01-30T03:27:49.136Z,3.78
2023-01-30T03:30:16.466Z,2.60
2023-01-30T03:32:43.633Z,2.95
2023-01-30T03:35:10.770Z,2.70
2023-01-30T03:37:37.952Z,2.92
2023-01-30T03:40:05.582Z,2.83
2023-01-30T03:42:32.694Z,2.30
2023-01-30T03:44:59.761Z,2.50
2023-01-30T03:47:27.236Z,2.85
2023-01-30T03:49:54.515Z,3.13
2023-01-30T03:52:21.663Z,3.55
2023-01-30T03:54:48.757Z,2.92
2023-01-30T03:57:15.818Z,2.95
2023-01-30T03:59:42.925Z,3.28
2023-01-30T04:02:10.424Z,3.17
2023-01-30T04:04:37.557Z,3.38
2023-01-30T04:07:04.641Z,2.80
2023-01-30T04:09:31.773Z,3.00
2023-01-30T04:11:58.927Z,2.92
2023-01-30T04:14:26.087Z,2.97
2023-01-30T04:16:53.283Z,3.65
2023-01-30T04:19:20.441Z,3.45
2023-01-30T04:21:47.556Z,2.70
2023-01-30T04:24:14.691Z,3.05
2023-01-30T04:26:41.775Z,2.78
2023-01-30T04:29:08.942Z,3.03
2023-01-30T04:31:36.019Z,2.55
2023-01-30T04:34:03.269Z,2.60
2023-01-30T04:36:30.358Z,2.95
2023-01-30T04:38:58.262Z,2.33
2023-01-30T04:41:25.427Z,2.72
2023-01-30T04:43:52.473Z,2.53
2023-01-30T04:46:19.619Z,2.30
2023-01-30T04:48:46.764Z,2.53
2023-01-30T04:51:13.881Z,2.20
2023-01-30T04:53:40.931Z,2.30
2023-01-30T04:56:08.279Z,2.90
2023-01-30T04:58:35.452Z,2.13
2023-01-30T05:01:17.706Z,2.13
2023-01-30T05:06:11.868Z,1.85
2023-01-30T05:08:38.919Z,2.47
2023-01-30T05:11:06.112Z,2.10
2023-01-30T05:13:33.272Z,2.40
2023-01-30T05:16:00.416Z,2.17
2023-01-30T05:18:27.509Z,1.40
2023-01-30T05:20:55.555Z,2.35
2023-01-30T05:23:22.634Z,2.05
2023-01-30T05:25:49.761Z,1.90
2023-01-30T05:28:17.015Z,1.85
2023-01-30T05:30:46.312Z,1.90
2023-01-30T05:33:14.101Z,2.75
2023-01-30T05:35:46.787Z,1.30
2023-01-30T05:38:13.859Z,1.50
2023-01-30T05:40:40.980Z,1.77
2023-01-30T05:43:09.604Z,2.83
2023-01-30T05:45:37.040Z,2.05
2023-01-30T05:48:04.439Z,2.72
2023-01-30T05:50:31.969Z,2.20
2023-01-30T05:52:59.004Z,2.95
2023-01-30T05:55:26.230Z,2.67
2023-01-30T05:57:53.339Z,2.10
2023-01-30T06:00:20.723Z,2.72
2023-01-30T06:02:47.880Z,2.25
2023-01-30T06:05:14.973Z,2.17
2023-01-30T06:07:42.258Z,1.40
2023-01-30T06:10:09.737Z,1.45
2023-01-30T06:12:36.781Z,1.95
2023-01-30T06:15:04.135Z,1.95
2023-01-30T06:17:34.066Z,2.67
2023-01-30T06:20:01.189Z,3.47
2023-01-30T06:22:28.311Z,1.77
2023-01-30T06:24:55.420Z,1.30
2023-01-30T06:27:22.505Z,2.22
2023-01-30T06:29:49.577Z,2.13
2023-01-30T06:32:16.687Z,2.65
2023-01-30T06:34:43.851Z,1.90
2023-01-30T06:37:11.000Z,2.03
2023-01-30T06:39:38.110Z,2.15
2023-01-30T06:42:05.439Z,1.38
2023-01-30T06:44:32.501Z,2.03
2023-01-30T06:46:59.544Z,2.63
2023-01-30T06:49:26.654Z,2.33
2023-01-30T06:51:53.710Z,2.75
2023-01-30T06:54:20.790Z,1.88
2023-01-30T06:56:47.906Z,1.63
2023-01-30T06:59:15.264Z,2.08
2023-01-30T07:01:42.437Z,1.85
2023-01-30T07:04:09.713Z,1.73
2023-01-30T07:06:36.907Z,1.48
2023-01-30T07:09:04.135Z,2.20
2023-01-30T07:11:31.316Z,1.60
2023-01-30T07:13:58.732Z,1.90
2023-01-30T07:16:29.300Z,1.70
2023-01-30T07:18:58.588Z,1.55
2023-01-30T07:21:27.251Z,1.50
2023-01-30T07:23:54.573Z,1.58
2023-01-30T07:26:22.519Z,1.67
2023-01-30T07:28:49.567Z,2.05
2023-01-30T07:31:16.731Z,2.25
2023-01-30T07:33:43.934Z,1.55
2023-01-30T07:36:11.016Z,1.85
2023-01-30T07:38:38.143Z,1.30
2023-01-30T07:41:05.372Z,1.67
2023-01-30T07:43:32.476Z,2.10
2023-01-30T07:46:01.573Z,2.58
2023-01-30T07:48:28.815Z,3.00
2023-01-30T07:50:57.404Z,2.65
2023-01-30T07:53:24.753Z,1.60
2023-01-30T07:55:51.973Z,1.88
2023-01-30T07:58:19.111Z,1.77
2023-01-30T08:00:46.472Z,2.10
2023-01-30T08:03:14.385Z,2.45
2023-01-30T08:05:41.547Z,1.70
2023-01-30T08:08:08.636Z,2.47
2023-01-30T08:10:35.723Z,1.65
2023-01-30T08:13:02.888Z,1.70
2023-01-30T08:15:31.823Z,1.73
2023-01-30T08:17:59.172Z,1.85
2023-01-30T08:20:27.332Z,1.55
2023-01-30T08:22:55.045Z,2.45
2023-01-30T08:25:22.303Z,1.75
2023-01-30T08:27:49.437Z,1.88
2023-01-30T08:30:16.977Z,1.25
2023-01-30T08:32:44.321Z,1.65
2023-01-30T08:35:11.793Z,2.15
2023-01-30T08:37:42.645Z,2.28
2023-01-30T08:40:10.390Z,1.95
2023-01-30T08:42:37.450Z,2.17
2023-01-30T08:45:04.914Z,1.88
2023-01-30T08:47:32.196Z,2.20
2023-01-30T08:49:59.328Z,2.30
2023-01-30T08:52:26.488Z,1.92
2023-01-30T08:54:53.540Z,1.42
2023-01-30T08:57:20.641Z,1.85
2023-01-30T08:59:47.833Z,2.42
2023-01-30T09:02:14.948Z,3.08
2023-01-30T09:04:42.122Z,2.22
2023-01-30T09:07:09.347Z,2.25
2023-01-30T09:09:36.529Z,1.05
2023-01-30T09:12:04.173Z,1.80
2023-01-30T09:14:31.243Z,2.55
2023-01-30T09:16:58.506Z,1.80
2023-01-30T09:19:26.693Z,2.00
2023-01-30T09:21:54.252Z,2.38
2023-01-30T09:24:26.347Z,1.23
2023-01-30T09:26:54.261Z,1.88
2023-01-30T09:29:21.398Z,1.48
2023-01-30T09:31:48.565Z,1.85
2023-01-30T09:34:15.826Z,2.17
2023-01-30T09:36:43.318Z,2.00
2023-01-30T09:39:10.459Z,1.40
2023-01-30T09:41:46.600Z,1.90
2023-01-30T09:44:13.687Z,2.15
2023-01-30T09:46:46.951Z,1.85
2023-01-30T09:49:17.401Z,2.17
2023-01-30T09:52:02.784Z,1.58
2023-01-30T09:54:31.584Z,2.03
2023-01-30T09:57:02.393Z,2.00
2023-01-30T09:59:33.049Z,1.70
2023-01-30T10:02:18.106Z,1.65
2023-01-30T10:05:00.423Z,1.70
2023-01-30T10:07:33.004Z,2.05
2023-01-30T10:10:25.544Z,1.52
2023-01-30T10:12:52.677Z,2.55
2023-01-30T10:15:28.945Z,2.35
2023-01-30T10:17:58.852Z,1.77
2023-01-30T10:20:32.634Z,2.00
2023-01-30T10:23:23.537Z,2.65
2023-01-30T10:25:50.636Z,1.92
2023-01-30T10:28:27.004Z,2.53
2023-01-30T10:30:57.088Z,2.15
2023-01-30T10:33:33.999Z,2.03
2023-01-30T10:36:05.242Z,2.63
2023-01-30T10:38:36.584Z,2.15
2023-01-30T10:41:15.710Z,2.28
2023-01-30T10:44:01.283Z,2.60
2023-01-30T10:46:37.482Z,2.35
2023-01-30T10:49:06.959Z,1.60
2023-01-30T10:51:37.498Z,1.70
2023-01-30T10:54:13.766Z,2.13
2023-01-30T10:56:44.888Z,1.85
2023-01-30T10:59:35.399Z,2.53
2023-01-30T11:02:17.614Z,2.53
2023-01-30T11:07:12.515Z,2.35
2023-01-30T11:09:49.661Z,1.83
2023-01-30T11:12:16.846Z,1.63
2023-01-30T11:15:00.894Z,1.80
2023-01-30T11:17:31.211Z,1.85
2023-01-30T11:20:01.963Z,1.45
2023-01-30T11:22:30.560Z,2.13
2023-01-30T11:25:11.993Z,2.38
2023-01-30T11:27:39.276Z,1.77
2023-01-30T11:30:06.646Z,1.83
2023-01-30T11:32:33.807Z,2.35
2023-01-30T11:35:12.370Z,3.13
2023-01-30T11:37:40.845Z,2.35
2023-01-30T11:40:16.511Z,2.35
2023-01-30T11:42:50.989Z,2.10
2023-01-30T11:45:19.042Z,2.15
2023-01-30T11:47:58.824Z,2.38
2023-01-30T11:50:41.604Z,2.47
2023-01-30T11:53:17.114Z,1.92
2023-01-30T11:56:00.334Z,3.13
2023-01-30T11:58:33.525Z,3.10
2023-01-30T12:01:00.991Z,2.28
2023-01-30T12:03:30.006Z,1.77
2023-01-30T12:05:58.594Z,2.05
2023-01-30T12:08:40.472Z,1.83
2023-01-30T12:11:24.538Z,1.83
2023-01-30T12:13:53.946Z,2.95
2023-01-30T12:16:39.804Z,1.98
2023-01-30T12:19:27.205Z,2.10
2023-01-30T12:21:54.442Z,3.00
2023-01-30T12:24:25.156Z,2.15
2023-01-30T12:27:14.504Z,1.90
2023-01-30T12:29:48.006Z,2.45
2023-01-30T12:32:17.355Z,1.92
2023-01-30T12:34:48.344Z,2.42
2023-01-30T12:37:39.535Z,3.65
2023-01-30T12:40:06.674Z,2.78
2023-01-30T12:42:36.577Z,4.00
2023-01-30T12:45:21.090Z,3.75
2023-01-30T12:48:07.037Z,2.90
2023-01-30T12:50:45.751Z,4.57
2023-01-30T12:53:24.981Z,2.45
2023-01-30T12:55:52.051Z,1.40
2023-01-30T12:58:35.731Z,1.50
2023-01-30T13:01:16.101Z,1.20
2023-01-30T13:03:52.766Z,1.73
2023-01-30T13:06:38.888Z,0.93
2023-01-30T13:09:09.052Z,1.33
2023-01-30T13:11:39.358Z,2.05
2023-01-30T13:14:19.861Z,1.27
2023-01-30T13:16:47.129Z,2.22
2023-01-30T13:19:18.047Z,2.40
2023-01-30T13:22:01.725Z,1.33
2023-01-30T13:24:38.081Z,2.40
2023-01-30T13:27:09.440Z,2.03
2023-01-30T13:29:38.885Z,1.58
2023-01-30T13:32:07.394Z,1.42
2023-01-30T13:34:36.149Z,1.90
2023-01-30T13:37:05.300Z,2.13
2023-01-30T13:39:32.396Z,1.98
2023-01-30T13:42:00.867Z,2.67
2023-01-30T13:44:30.983Z,1.80
2023-01-30T13:47:00.342Z,2.40
2023-01-30T13:49:38.930Z,2.55
2023-01-30T13:52:28.042Z,1.98
2023-01-30T13:55:01.832Z,1.63
2023-01-30T13:57:48.137Z,1.40
2023-01-30T14:00:32.966Z,2.22
2023-01-30T14:03:09.020Z,2.47
2023-01-30T14:05:54.736Z,2.58
2023-01-30T14:08:23.518Z,3.25
2023-01-30T14:10:50.850Z,7.97
2023-01-30T14:13:18.434Z,2.33
2023-01-30T14:16:02.370Z,2.97
2023-01-30T14:18:35.941Z,6.00
2023-01-30T14:21:17.681Z,3.03
2023-01-30T14:23:55.422Z,4.38
2023-01-30T14:26:41.385Z,4.05
2023-01-30T14:29:08.552Z,3.95
2023-01-30T14:31:50.729Z,2.40
2023-01-30T14:36:47.789Z,2.55
2023-01-30T14:39:33.803Z,2.30
2023-01-30T14:42:20.199Z,2.00
2023-01-30T14:45:04.752Z,3.42
2023-01-30T14:47:36.715Z,2.25
2023-01-30T14:50:24.328Z,1.95
2023-01-30T14:52:55.973Z,2.25
2023-01-30T14:55:29.595Z,1.98
2023-01-30T14:57:59.059Z,2.83
2023-01-30T15:00:35.809Z,2.40
2023-01-30T15:03:05.506Z,3.72
2023-01-30T15:05:34.524Z,2.15
2023-01-30T15:08:07.812Z,2.22
2023-01-30T15:10:52.682Z,2.33
2023-01-30T15:13:28.351Z,2.55
2023-01-30T15:16:14.013Z,2.50
2023-01-30T15:19:03.549Z,2.10
2023-01-30T15:21:37.627Z,3.03
2023-01-30T15:24:23.345Z,4.13
2023-01-30T15:26:56.565Z,2.80
2023-01-30T15:29:26.552Z,3.28
2023-01-30T15:31:58.435Z,3.13
2023-01-30T15:34:29.146Z,2.72
2023-01-30T15:36:56.454Z,3.33
2023-01-30T15:39:24.596Z,4.38
2023-01-30T15:41:52.754Z,3.22
2023-01-30T15:44:45.923Z,2.67
2023-01-30T15:47:16.024Z,3.00
2023-01-30T15:49:54.492Z,2.88
2023-01-30T15:52:22.514Z,2.15
2023-01-30T15:54:54.112Z,2.80
2023-01-30T15:57:29.725Z,2.33
2023-01-30T15:59:57.438Z,2.45
2023-01-30T16:02:28.772Z,3.63
2023-01-30T16:05:18.130Z,3.45
2023-01-30T16:07:46.345Z,2.53
2023-01-30T16:10:31.471Z,2.63
2023-01-30T16:12:59.970Z,2.47
2023-01-30T16:15:27.153Z,7.57
2023-01-30T16:18:06.258Z,5.45
2023-01-30T16:20:48.713Z,4.43
2023-01-30T16:23:25.394Z,3.65
2023-01-30T16:25:53.800Z,3.60
2023-01-30T16:28:24.888Z,2.90
2023-01-30T16:31:02.131Z,2.65
2023-01-30T16:33:36.184Z,2.80
2023-01-30T16:36:04.615Z,3.33
2023-01-30T16:38:44.448Z,2.00
2023-01-30T16:41:33.898Z,2.35
2023-01-30T16:44:27.574Z,3.10
2023-01-30T16:46:54.647Z,2.15
2023-01-30T16:49:21.795Z,2.97
2023-01-30T16:51:50.897Z,2.88
2023-01-30T16:54:19.925Z,2.70
2023-01-30T16:56:48.886Z,2.53
2023-01-30T16:59:20.864Z,3.40
2023-01-30T17:01:48.483Z,2.58
2023-01-30T17:04:21.380Z,2.95
2023-01-30T17:06:54.010Z,2.75
2023-01-30T17:09:40.711Z,3.63
2023-01-30T17:12:26.142Z,3.47
2023-01-30T17:15:14.560Z,3.55
2023-01-30T17:17:42.078Z,3.60
2023-01-30T17:20:09.783Z,4.57
2023-01-30T17:22:38.119Z,2.75
2023-01-30T17:25:15.121Z,3.75
2023-01-30T17:27:42.203Z,3.72
2023-01-30T17:30:16.181Z,3.28
2023-01-30T17:32:43.297Z,2.30
2023-01-30T17:35:12.257Z,2.90
2023-01-30T17:37:39.570Z,2.08
2023-01-30T17:40:33.613Z,2.20
2023-01-30T17:43:01.224Z,2.25
2023-01-30T17:45:28.499Z,1.55
2023-01-30T17:47:55.982Z,2.42
2023-01-30T17:50:23.123Z,2.38
2023-01-30T17:52:50.366Z,3.60
2023-01-30T17:55:18.225Z,2.13
2023-01-30T17:57:46.061Z,2.40
2023-01-30T18:00:20.360Z,2.95
2023-01-30T18:02:48.321Z,3.00
2023-01-30T18:05:15.886Z,4.03
2023-01-30T18:07:43.857Z,3.22
2023-01-30T18:10:14.020Z,7.53
2023-01-30T18:12:41.218Z,3.67
2023-01-30T18:15:08.692Z,5.72
2023-01-30T18:17:38.307Z,3.22
2023-01-30T18:20:05.640Z,10.65
2023-01-30T18:22:32.793Z,5.65
2023-01-30T18:24:59.917Z,4.05
2023-01-30T18:27:27.033Z,2.78
2023-01-30T18:29:54.148Z,2.15
2023-01-30T18:32:21.320Z,1.98
2023-01-30T18:34:48.499Z,1.80
2023-01-30T18:37:15.611Z,3.50
2023-01-30T18:39:42.716Z,3.05
2023-01-30T18:42:09.895Z,2.40
2023-01-30T18:44:37.028Z,2.22
2023-01-30T18:47:04.787Z,8.52
2023-01-30T18:49:32.031Z,8.23
2023-01-30T18:51:59.188Z,8.75
2023-01-30T18:54:26.280Z,11.07
2023-01-30T18:56:53.400Z,4.82
2023-01-30T18:59:20.539Z,2.53
2023-01-30T19:01:47.672Z,1.75
2023-01-30T19:04:14.807Z,2.17
2023-01-30T19:06:42.952Z,2.83
2023-01-30T19:09:14.292Z,2.42
2023-01-30T19:12:00.047Z,1.88
2023-01-30T19:14:27.158Z,2.38
2023-01-30T19:16:54.523Z,2.10
2023-01-30T19:19:22.011Z,2.70
2023-01-30T19:21:50.549Z,4.70
2023-01-30T19:24:18.760Z,2.83
2023-01-30T19:26:46.107Z,2.92
2023-01-30T19:29:13.267Z,2.92
2023-01-30T19:31:40.699Z,2.25
2023-01-30T19:34:07.910Z,1.23
2023-01-30T19:36:36.336Z,3.03
2023-01-30T19:39:04.146Z,2.20
2023-01-30T19:41:32.225Z,1.85
2023-01-30T19:44:00.402Z,1.20
2023-01-30T19:46:29.052Z,2.00
2023-01-30T19:48:56.637Z,2.03
2023-01-30T19:51:27.916Z,1.60
2023-01-30T19:53:56.237Z,2.10
2023-01-30T19:56:25.303Z,1.92
2023-01-30T19:58:53.155Z,2.83
2023-01-30T20:01:21.389Z,1.55
2023-01-30T20:03:48.800Z,1.30
2023-01-30T20:06:17.540Z,1.85
2023-01-30T20:08:45.684Z,2.67
2023-01-30T20:11:14.300Z,1.63
2023-01-30T20:13:42.354Z,2.22
2023-01-30T20:16:11.184Z,2.08
2023-01-30T20:18:38.595Z,2.30
2023-01-30T20:21:09.761Z,2.42
2023-01-30T20:23:37.301Z,2.13
2023-01-30T20:26:08.539Z,1.98
2023-01-30T20:28:36.057Z,2.90
2023-01-30T20:31:13.734Z,1.80
2023-01-30T20:33:41.172Z,2.03
2023-01-30T20:36:09.653Z,1.90
2023-01-30T20:38:37.708Z,2.30
2023-01-30T20:41:12.139Z,1.25
2023-01-30T20:43:40.156Z,3.30
2023-01-30T20:46:08.351Z,4.38
2023-01-30T20:48:36.407Z,2.30
2023-01-30T20:51:07.073Z,2.50
2023-01-30T20:53:34.492Z,1.65
2023-01-30T20:56:01.738Z,2.33
2023-01-30T20:58:29.398Z,1.67
2023-01-30T21:00:56.705Z,2.03
2023-01-30T21:03:25.476Z,1.70
2023-01-30T21:05:56.855Z,2.20
2023-01-30T21:08:24.195Z,3.05
2023-01-30T21:10:51.331Z,2.35
2023-01-30T21:13:18.552Z,1.55
2023-01-30T21:15:45.739Z,1.77
2023-01-30T21:18:12.874Z,2.22
2023-01-30T21:20:40.311Z,1.88
2023-01-30T21:23:07.598Z,1.73
2023-01-30T21:25:35.996Z,1.08
2023-01-30T21:28:03.088Z,1.80
2023-01-30T21:30:30.248Z,2.63
2023-01-30T21:32:58.170Z,1.40
2023-01-30T21:35:25.741Z,2.38
2023-01-30T21:38:11.664Z,3.05
2023-01-30T21:40:57.630Z,1.77
2023-01-30T21:43:24.879Z,1.15
2023-01-30T21:45:57.601Z,1.63
2023-01-30T21:48:24.817Z,1.48
2023-01-30T21:50:51.886Z,2.63
2023-01-30T21:53:19.090Z,1.67
2023-01-30T21:55:52.970Z,1.50
2023-01-30T21:58:20.628Z,1.27
2023-01-30T22:00:47.765Z,1.33
2023-01-30T22:03:15.020Z,2.13
2023-01-30T22:05:45.464Z,1.52
2023-01-30T22:08:12.607Z,0.93
2023-01-30T22:10:39.901Z,1.45
2023-01-30T22:13:07.009Z,1.08
2023-01-30T22:15:34.101Z,1.10
2023-01-30T22:18:02.771Z,1.13
2023-01-30T22:20:29.938Z,1.80
2023-01-30T22:22:57.161Z,1.95
2023-01-30T22:25:24.430Z,1.90
2023-01-30T22:27:51.805Z,1.40
2023-01-30T22:30:18.959Z,2.05
2023-01-30T22:32:46.060Z,1.65
2023-01-30T22:35:13.175Z,1.98
2023-01-30T22:37:40.282Z,1.73
2023-01-30T22:40:07.757Z,2.83
2023-01-30T22:42:34.828Z,1.63
2023-01-30T22:45:01.977Z,1.23
2023-01-30T22:47:29.152Z,2.38
2023-01-30T22:49:56.318Z,1.60
2023-01-30T22:52:23.384Z,1.38
2023-01-30T22:54:50.494Z,1.17
2023-01-30T22:57:17.671Z,1.48
2023-01-30T22:59:44.821Z,1.58
2023-01-30T23:02:12.194Z,1.80
2023-01-30T23:04:39.357Z,1.50
2023-01-30T23:07:06.496Z,1.65
2023-01-30T23:09:33.642Z,1.65
2023-01-30T23:12:19.433Z,1.55
2023-01-30T23:14:46.581Z,1.35
2023-01-30T23:17:32.292Z,2.50
2023-01-30T23:19:59.428Z,1.90
2023-01-30T23:22:26.561Z,2.72
2023-01-30T23:24:53.665Z,1.10
2023-01-30T23:27:21.328Z,1.05
2023-01-30T23:29:48.457Z,1.63
2023-01-30T23:32:18.992Z,1.45
2023-01-30T23:34:46.623Z,1.35
2023-01-30T23:37:13.719Z,1.63
2023-01-30T23:39:40.849Z,1.80
2023-01-30T23:42:07.988Z,1.27
2023-01-30T23:44:35.475Z,1.42
2023-01-30T23:47:02.615Z,1.25
2023-01-30T23:49:29.659Z,1.27
2023-01-30T23:51:57.275Z,1.33
2023-01-30T23:54:25.044Z,1.75
2023-01-30T23:56:52.173Z,1.45
2023-01-30T23:59:19.226Z,1.40
